sensor_id;sensor_type;location;lat;lon;timestamp;P1;P4;P2;P0;N10;N4;N25;N1;N05;TS
79466;SPS30;68933;49.726;9.226;2023-04-24T00:02:01;1.1;;1.1;1.1;;;;;;
79466;SPS30;68933;49.726;9.226;2023-04-24T00:04:14;1.1;;1.1;1.1;;;;;;
79466;SPS30;68933;49.726;9.226;2023-04-24T00:06:27;1;;1;0.9;;;;;;
79466;SPS30;68933;49.726;9.226;2023-04-24T00:08:40;1;;1;0.9;;;;;;
79466;SPS30;68933;49.726;9.226;2023-04-24T00:10:53;1.1;;1.1;1.1;;;;;;
79466;SPS30;68933;49.726;9.226;2023-04-24T00:13:06;1.1;;1.1;1.1;;;;;;
79466;SPS30;68933;49.726;9.226;2023-04-24T00:15:19;1;;1;1;;;;;;
79466;SPS30;68933;49.726;9.226;2023-04-24T00:17:32;1;;1;1;;;;;;
79466;SPS30;68933;49.726;9.226;2023-04-24T00:19:45;1;;1;1;;;;;;
79466;SPS30;68933;49.726;9.226;2023-04-24T00:21:58;1;;1;1;;;;;;
79466;SPS30;68933;49.726;9.226;2023-04-24T00:24:11;1;;1;1;;;;;;
79466;SPS30;68933;49.726;9.226;2023-04-24T00:26:24;1.3;;1.3;1.2;;;;;;
79466;SPS30;68933;49.726;9.226;2023-04-24T00:28:37;1.3;;1.3;1.2;;;;;;
79466;SPS30;68933;49.726;9.226;2023-04-24T00:30:50;1.3;;1.3;1.2;;;;;;
79466;SPS30;68933;49.726;9.226;2023-04-24T00:33:03;1.3;;1.3;1.2;;;;;;
79466;SPS30;68933;49.726;9.226;2023-04-24T00:35:16;1.3;;1.3;1.2;;;;;;
79466;SPS30;68933;49.726;9.226;2023-04-24T00:37:29;1;;1;1;;;;;;
79466;SPS30;68933;49.726;9.226;2023-04-24T00:39:42;1;;1;1;;;;;;
79466;SPS30;68933;49.726;9.226;2023-04-24T00:41:55;1;;1;1;;;;;;
79466;SPS30;68933;49.726;9.226;2023-04-24T00:44:08;1.1;;1.1;1;;;;;;
79466;SPS30;68933;49.726;9.226;2023-04-24T00:46:21;1.1;;1.1;1;;;;;;
79466;SPS30;68933;49.726;9.226;2023-04-24T00:48:34;1.3;;1.3;1.2;;;;;;
79466;SPS30;68933;49.726;9.226;2023-04-24T00:50:47;1.3;;1.3;1.2;;;;;;
79466;SPS30;68933;49.726;9.226;2023-04-24T00:53:00;1.2;;1.2;1.1;;;;;;
79466;SPS30;68933;49.726;9.226;2023-04-24T00:55:13;1.2;;1.2;1.1;;;;;;
79466;SPS30;68933;49.726;9.226;2023-04-24T00:57:26;1.2;;1.2;1.1;;;;;;
79466;SPS30;68933;49.726;9.226;2023-04-24T00:59:39;1.2;;1.2;1.2;;;;;;
79466;SPS30;68933;49.726;9.226;2023-04-24T01:01:52;1.2;;1.2;1.2;;;;;;
79466;SPS30;68933;49.726;9.226;2023-04-24T01:04:05;1.2;;1.2;1.1;;;;;;
79466;SPS30;68933;49.726;9.226;2023-04-24T01:06:18;1.2;;1.2;1.1;;;;;;
79466;SPS30;68933;49.726;9.226;2023-04-24T01:08:31;1.2;;1.2;1.1;;;;;;
79466;SPS30;68933;49.726;9.226;2023-04-24T01:10:44;1.8;;1.8;1.7;;;;;;
79466;SPS30;68933;49.726;9.226;2023-04-24T01:12:57;1.8;;1.8;1.7;;;;;;
79466;SPS30;68933;49.726;9.226;2023-04-24T01:15:10;1.3;;1.3;1.2;;;;;;
79466;SPS30;68933;49.726;9.226;2023-04-24T01:17:23;1.3;;1.3;1.2;;;;;;
79466;SPS30;68933;49.726;9.226;2023-04-24T01:19:36;1.3;;1.3;1.2;;;;;;
79466;SPS30;68933;49.726;9.226;2023-04-24T01:21:50;1.2;;1.2;1.1;;;;;;
79466;SPS30;68933;49.726;9.226;2023-04-24T01:24:02;1.2;;1.2;1.1;;;;;;
79466;SPS30;68933;49.726;9.226;2023-04-24T01:26:16;1.1;;1.1;1;;;;;;
79466;SPS30;68933;49.726;9.226;2023-04-24T01:28:28;1.1;;1.1;1;;;;;;
79466;SPS30;68933;49.726;9.226;2023-04-24T01:30:41;0.9;;0.9;0.8;;;;;;
79466;SPS30;68933;49.726;9.226;2023-04-24T01:32:54;0.9;;0.9;0.8;;;;;;
79466;SPS30;68933;49.726;9.226;2023-04-24T01:35:07;0.9;;0.9;0.8;;;;;;
79466;SPS30;68933;49.726;9.226;2023-04-24T01:37:20;1.1;;1.1;1;;;;;;
79466;SPS30;68933;49.726;9.226;2023-04-24T01:39:33;1.1;;1.1;1;;;;;;
79466;SPS30;68933;49.726;9.226;2023-04-24T01:41:46;1.2;;1.2;1.2;;;;;;
79466;SPS30;68933;49.726;9.226;2023-04-24T01:43:59;1.2;;1.2;1.2;;;;;;
79466;SPS30;68933;49.726;9.226;2023-04-24T01:46:12;1.1;;1.1;1;;;;;;
79466;SPS30;68933;49.726;9.226;2023-04-24T01:48:25;1.1;;1.1;1;;;;;;
79466;SPS30;68933;49.726;9.226;2023-04-24T01:50:39;1.1;;1.1;1;;;;;;
79466;SPS30;68933;49.726;9.226;2023-04-24T01:52:51;1.3;;1.3;1.2;;;;;;
79466;SPS30;68933;49.726;9.226;2023-04-24T01:55:05;1.3;;1.3;1.2;;;;;;
79466;SPS30;68933;49.726;9.226;2023-04-24T01:57:17;0.9;;0.9;0.9;;;;;;
79466;SPS30;68933;49.726;9.226;2023-04-24T01:59:30;0.9;;0.9;0.9;;;;;;
79466;SPS30;68933;49.726;9.226;2023-04-24T02:01:43;1.4;;1.4;1.3;;;;;;
79466;SPS30;68933;49.726;9.226;2023-04-24T02:03:56;1.4;;1.4;1.3;;;;;;
79466;SPS30;68933;49.726;9.226;2023-04-24T02:06:09;1.2;;1.2;1.1;;;;;;
79466;SPS30;68933;49.726;9.226;2023-04-24T02:08:22;1.2;;1.2;1.1;;;;;;
79466;SPS30;68933;49.726;9.226;2023-04-24T02:10:35;1.2;;1.2;1.1;;;;;;
79466;SPS30;68933;49.726;9.226;2023-04-24T02:12:48;1.3;;1.3;1.2;;;;;;
79466;SPS30;68933;49.726;9.226;2023-04-24T02:15:01;1.3;;1.3;1.2;;;;;;
79466;SPS30;68933;49.726;9.226;2023-04-24T02:17:14;1.2;;1.2;1.2;;;;;;
79466;SPS30;68933;49.726;9.226;2023-04-24T02:19:27;1.2;;1.2;1.2;;;;;;
79466;SPS30;68933;49.726;9.226;2023-04-24T02:21:40;1.2;;1.2;1.1;;;;;;
79466;SPS30;68933;49.726;9.226;2023-04-24T02:23:53;1.2;;1.2;1.1;;;;;;
79466;SPS30;68933;49.726;9.226;2023-04-24T02:26:06;1.2;;1.2;1.1;;;;;;
79466;SPS30;68933;49.726;9.226;2023-04-24T02:28:19;1.3;;1.3;1.2;;;;;;
79466;SPS30;68933;49.726;9.226;2023-04-24T02:30:32;1.3;;1.3;1.2;;;;;;
79466;SPS30;68933;49.726;9.226;2023-04-24T02:32:45;1.1;;1.1;1.1;;;;;;
79466;SPS30;68933;49.726;9.226;2023-04-24T02:34:58;1.1;;1.1;1.1;;;;;;
79466;SPS30;68933;49.726;9.226;2023-04-24T02:37:11;1.1;;1.1;1;;;;;;
79466;SPS30;68933;49.726;9.226;2023-04-24T02:39:24;1.1;;1.1;1;;;;;;
79466;SPS30;68933;49.726;9.226;2023-04-24T02:41:37;1.2;;1.2;1.1;;;;;;
79466;SPS30;68933;49.726;9.226;2023-04-24T02:43:50;1.2;;1.2;1.1;;;;;;
79466;SPS30;68933;49.726;9.226;2023-04-24T02:46:03;1.2;;1.2;1.1;;;;;;
79466;SPS30;68933;49.726;9.226;2023-04-24T02:48:16;1.3;;1.3;1.3;;;;;;
79466;SPS30;68933;49.726;9.226;2023-04-24T02:50:29;1.3;;1.3;1.3;;;;;;
79466;SPS30;68933;49.726;9.226;2023-04-24T02:52:42;1.7;;1.7;1.6;;;;;;
79466;SPS30;68933;49.726;9.226;2023-04-24T02:54:55;1.7;;1.7;1.6;;;;;;
79466;SPS30;68933;49.726;9.226;2023-04-24T02:57:08;3;;2.9;2.6;;;;;;
79466;SPS30;68933;49.726;9.226;2023-04-24T02:59:21;3;;2.9;2.6;;;;;;
79466;SPS30;68933;49.726;9.226;2023-04-24T03:01:35;5.4;;4.9;4.3;;;;;;
79466;SPS30;68933;49.726;9.226;2023-04-24T03:03:47;5.4;;4.9;4.3;;;;;;
79466;SPS30;68933;49.726;9.226;2023-04-24T03:06:00;4.4;;3.7;3;;;;;;
79466;SPS30;68933;49.726;9.226;2023-04-24T03:08:13;4.4;;3.7;3;;;;;;
79466;SPS30;68933;49.726;9.226;2023-04-24T03:10:26;5;;4.2;3.3;;;;;;
79466;SPS30;68933;49.726;9.226;2023-04-24T03:12:39;5;;4.2;3.3;;;;;;
79466;SPS30;68933;49.726;9.226;2023-04-24T03:14:52;5;;4.2;3.3;;;;;;
79466;SPS30;68933;49.726;9.226;2023-04-24T03:17:05;4.4;;3.7;2.9;;;;;;
79466;SPS30;68933;49.726;9.226;2023-04-24T03:19:18;4.4;;3.7;2.9;;;;;;
79466;SPS30;68933;49.726;9.226;2023-04-24T03:21:31;3;;2.5;2;;;;;;
79466;SPS30;68933;49.726;9.226;2023-04-24T03:23:44;3;;2.5;2;;;;;;
79466;SPS30;68933;49.726;9.226;2023-04-24T03:25:57;1.8;;1.7;1.5;;;;;;
79466;SPS30;68933;49.726;9.226;2023-04-24T03:28:10;1.8;;1.7;1.5;;;;;;
79466;SPS30;68933;49.726;9.226;2023-04-24T03:30:23;1.8;;1.7;1.5;;;;;;
79466;SPS30;68933;49.726;9.226;2023-04-24T03:32:36;1.3;;1.2;1.1;;;;;;
79466;SPS30;68933;49.726;9.226;2023-04-24T03:34:49;1.3;;1.2;1.1;;;;;;
79466;SPS30;68933;49.726;9.226;2023-04-24T03:37:02;1.4;;1.3;1.2;;;;;;
79466;SPS30;68933;49.726;9.226;2023-04-24T03:39:15;1.4;;1.3;1.2;;;;;;
79466;SPS30;68933;49.726;9.226;2023-04-24T03:41:28;1.4;;1.4;1.3;;;;;;
79466;SPS30;68933;49.726;9.226;2023-04-24T03:43:41;1.4;;1.4;1.3;;;;;;
79466;SPS30;68933;49.726;9.226;2023-04-24T03:45:54;1.4;;1.4;1.3;;;;;;
79466;SPS30;68933;49.726;9.226;2023-04-24T03:48:07;1.5;;1.5;1.4;;;;;;
79466;SPS30;68933;49.726;9.226;2023-04-24T03:50:20;1.5;;1.5;1.4;;;;;;
79466;SPS30;68933;49.726;9.226;2023-04-24T03:52:33;1.7;;1.7;1.6;;;;;;
79466;SPS30;68933;49.726;9.226;2023-04-24T03:54:46;1.7;;1.7;1.6;;;;;;
79466;SPS30;68933;49.726;9.226;2023-04-24T03:56:59;1.5;;1.5;1.4;;;;;;
79466;SPS30;68933;49.726;9.226;2023-04-24T03:59:12;1.5;;1.5;1.4;;;;;;
79466;SPS30;68933;49.726;9.226;2023-04-24T04:01:25;1.5;;1.5;1.4;;;;;;
79466;SPS30;68933;49.726;9.226;2023-04-24T04:03:38;1.4;;1.4;1.3;;;;;;
79466;SPS30;68933;49.726;9.226;2023-04-24T04:05:51;1.4;;1.4;1.3;;;;;;
79466;SPS30;68933;49.726;9.226;2023-04-24T04:08:04;1.1;;1.1;1;;;;;;
79466;SPS30;68933;49.726;9.226;2023-04-24T04:10:17;1.1;;1.1;1;;;;;;
79466;SPS30;68933;49.726;9.226;2023-04-24T04:12:30;1.1;;1.1;1;;;;;;
79466;SPS30;68933;49.726;9.226;2023-04-24T04:14:43;1.3;;1.3;1.2;;;;;;
79466;SPS30;68933;49.726;9.226;2023-04-24T04:16:56;1.3;;1.3;1.2;;;;;;
79466;SPS30;68933;49.726;9.226;2023-04-24T04:19:09;1.6;;1.6;1.5;;;;;;
79466;SPS30;68933;49.726;9.226;2023-04-24T04:21:22;1.6;;1.6;1.5;;;;;;
79466;SPS30;68933;49.726;9.226;2023-04-24T04:23:35;1.6;;1.6;1.5;;;;;;
79466;SPS30;68933;49.726;9.226;2023-04-24T04:25:48;1.3;;1.3;1.2;;;;;;
79466;SPS30;68933;49.726;9.226;2023-04-24T04:28:01;1.3;;1.3;1.2;;;;;;
79466;SPS30;68933;49.726;9.226;2023-04-24T04:30:14;1.3;;1.3;1.3;;;;;;
79466;SPS30;68933;49.726;9.226;2023-04-24T04:32:27;1.3;;1.3;1.3;;;;;;
79466;SPS30;68933;49.726;9.226;2023-04-24T04:34:40;1.5;;1.5;1.4;;;;;;
79466;SPS30;68933;49.726;9.226;2023-04-24T04:36:53;1.5;;1.5;1.4;;;;;;
79466;SPS30;68933;49.726;9.226;2023-04-24T04:39:06;1.5;;1.5;1.4;;;;;;
79466;SPS30;68933;49.726;9.226;2023-04-24T04:41:19;1.5;;1.5;1.4;;;;;;
79466;SPS30;68933;49.726;9.226;2023-04-24T04:43:32;1.5;;1.5;1.4;;;;;;
79466;SPS30;68933;49.726;9.226;2023-04-24T04:45:45;1.3;;1.3;1.2;;;;;;
79466;SPS30;68933;49.726;9.226;2023-04-24T04:47:58;1.3;;1.3;1.2;;;;;;
79466;SPS30;68933;49.726;9.226;2023-04-24T04:50:11;1.2;;1.2;1.1;;;;;;
79466;SPS30;68933;49.726;9.226;2023-04-24T04:52:24;1.2;;1.2;1.1;;;;;;
79466;SPS30;68933;49.726;9.226;2023-04-24T04:54:37;1.3;;1.3;1.1;;;;;;
79466;SPS30;68933;49.726;9.226;2023-04-24T04:56:50;1.3;;1.3;1.3;;;;;;
79466;SPS30;68933;49.726;9.226;2023-04-24T04:59:03;1.3;;1.3;1.3;;;;;;
79466;SPS30;68933;49.726;9.226;2023-04-24T05:01:16;1.7;;1.7;1.6;;;;;;
79466;SPS30;68933;49.726;9.226;2023-04-24T05:03:29;1.7;;1.7;1.6;;;;;;
79466;SPS30;68933;49.726;9.226;2023-04-24T05:05:42;1.8;;1.8;1.7;;;;;;
79466;SPS30;68933;49.726;9.226;2023-04-24T05:07:55;1.8;;1.8;1.7;;;;;;
79466;SPS30;68933;49.726;9.226;2023-04-24T05:10:08;1.9;;1.9;1.8;;;;;;
79466;SPS30;68933;49.726;9.226;2023-04-24T05:12:21;1.9;;1.9;1.8;;;;;;
79466;SPS30;68933;49.726;9.226;2023-04-24T05:14:34;1.5;;1.5;1.5;;;;;;
79466;SPS30;68933;49.726;9.226;2023-04-24T05:16:47;1.5;;1.5;1.5;;;;;;
79466;SPS30;68933;49.726;9.226;2023-04-24T05:19:00;1.5;;1.5;1.5;;;;;;
79466;SPS30;68933;49.726;9.226;2023-04-24T05:21:13;2.2;;2.2;2.1;;;;;;
79466;SPS30;68933;49.726;9.226;2023-04-24T05:23:26;2.2;;2.2;2.1;;;;;;
79466;SPS30;68933;49.726;9.226;2023-04-24T05:25:39;2.1;;2.1;2;;;;;;
79466;SPS30;68933;49.726;9.226;2023-04-24T05:27:52;2.1;;2.1;2;;;;;;
79466;SPS30;68933;49.726;9.226;2023-04-24T05:30:06;2.3;;2.3;2.2;;;;;;
79466;SPS30;68933;49.726;9.226;2023-04-24T05:32:18;2.3;;2.3;2.2;;;;;;
79466;SPS30;68933;49.726;9.226;2023-04-24T05:34:31;2.3;;2.3;2.2;;;;;;
79466;SPS30;68933;49.726;9.226;2023-04-24T05:36:44;2.1;;2.1;2;;;;;;
79466;SPS30;68933;49.726;9.226;2023-04-24T05:38:57;2.1;;2.1;2;;;;;;
79466;SPS30;68933;49.726;9.226;2023-04-24T05:41:10;2.2;;2.2;2.1;;;;;;
79466;SPS30;68933;49.726;9.226;2023-04-24T05:43:23;2.2;;2.2;2.1;;;;;;
79466;SPS30;68933;49.726;9.226;2023-04-24T05:45:36;2.3;;2.3;2.2;;;;;;
79466;SPS30;68933;49.726;9.226;2023-04-24T05:47:49;2.3;;2.3;2.2;;;;;;
79466;SPS30;68933;49.726;9.226;2023-04-24T05:50:02;2.3;;2.3;2.2;;;;;;
79466;SPS30;68933;49.726;9.226;2023-04-24T05:52:15;2.3;;2.3;2.2;;;;;;
79466;SPS30;68933;49.726;9.226;2023-04-24T05:54:28;2.4;;2.4;2.3;;;;;;
79466;SPS30;68933;49.726;9.226;2023-04-24T05:56:41;2.4;;2.4;2.3;;;;;;
79466;SPS30;68933;49.726;9.226;2023-04-24T05:58:54;2.8;;2.8;2.7;;;;;;
79466;SPS30;68933;49.726;9.226;2023-04-24T06:01:07;2.8;;2.8;2.7;;;;;;
79466;SPS30;68933;49.726;9.226;2023-04-24T06:03:20;2.8;;2.8;2.7;;;;;;
79466;SPS30;68933;49.726;9.226;2023-04-24T06:05:33;3;;3;2.9;;;;;;
79466;SPS30;68933;49.726;9.226;2023-04-24T06:07:47;3;;3;2.9;;;;;;
79466;SPS30;68933;49.726;9.226;2023-04-24T06:09:59;2.7;;2.7;2.5;;;;;;
79466;SPS30;68933;49.726;9.226;2023-04-24T06:12:12;2.7;;2.7;2.5;;;;;;
79466;SPS30;68933;49.726;9.226;2023-04-24T06:14:25;2.5;;2.5;2.4;;;;;;
79466;SPS30;68933;49.726;9.226;2023-04-24T06:16:39;2.5;;2.5;2.4;;;;;;
79466;SPS30;68933;49.726;9.226;2023-04-24T06:18:51;2.8;;2.8;2.6;;;;;;
79466;SPS30;68933;49.726;9.226;2023-04-24T06:21:04;2.8;;2.8;2.6;;;;;;
79466;SPS30;68933;49.726;9.226;2023-04-24T06:23:17;2.8;;2.8;2.6;;;;;;
79466;SPS30;68933;49.726;9.226;2023-04-24T06:25:30;2.8;;2.8;2.7;;;;;;
79466;SPS30;68933;49.726;9.226;2023-04-24T06:27:43;2.8;;2.8;2.7;;;;;;
79466;SPS30;68933;49.726;9.226;2023-04-24T06:29:56;2.7;;2.7;2.6;;;;;;
79466;SPS30;68933;49.726;9.226;2023-04-24T06:32:09;2.7;;2.7;2.6;;;;;;
79466;SPS30;68933;49.726;9.226;2023-04-24T06:34:22;2.7;;2.7;2.6;;;;;;
79466;SPS30;68933;49.726;9.226;2023-04-24T06:36:35;3.5;;3.5;3.3;;;;;;
79466;SPS30;68933;49.726;9.226;2023-04-24T06:38:48;3.5;;3.5;3.3;;;;;;
79466;SPS30;68933;49.726;9.226;2023-04-24T06:41:01;3.1;;3.1;3;;;;;;
79466;SPS30;68933;49.726;9.226;2023-04-24T06:43:14;3.1;;3.1;3;;;;;;
79466;SPS30;68933;49.726;9.226;2023-04-24T06:45:27;3.1;;3.1;3;;;;;;
79466;SPS30;68933;49.726;9.226;2023-04-24T06:47:40;3.1;;3.1;3;;;;;;
79466;SPS30;68933;49.726;9.226;2023-04-24T06:49:53;3.1;;3.1;3;;;;;;
79466;SPS30;68933;49.726;9.226;2023-04-24T06:52:06;2.9;;2.9;2.8;;;;;;
79466;SPS30;68933;49.726;9.226;2023-04-24T06:54:19;2.9;;2.9;2.8;;;;;;
79466;SPS30;68933;49.726;9.226;2023-04-24T06:56:32;4;;4;3.8;;;;;;
79466;SPS30;68933;49.726;9.226;2023-04-24T06:58:45;4;;4;3.8;;;;;;
79466;SPS30;68933;49.726;9.226;2023-04-24T07:00:58;4;;4;3.8;;;;;;
79466;SPS30;68933;49.726;9.226;2023-04-24T07:03:11;4.2;;4.2;4;;;;;;
79466;SPS30;68933;49.726;9.226;2023-04-24T07:05:24;4.2;;4.2;4;;;;;;
79466;SPS30;68933;49.726;9.226;2023-04-24T07:07:37;3.5;;3.5;3.4;;;;;;
79466;SPS30;68933;49.726;9.226;2023-04-24T07:09:50;3.5;;3.5;3.4;;;;;;
79466;SPS30;68933;49.726;9.226;2023-04-24T07:12:03;3.5;;3.5;3.4;;;;;;
79466;SPS30;68933;49.726;9.226;2023-04-24T07:14:16;4.9;;4.9;4.6;;;;;;
79466;SPS30;68933;49.726;9.226;2023-04-24T07:16:29;4.9;;4.9;4.6;;;;;;
79466;SPS30;68933;49.726;9.226;2023-04-24T07:18:42;4.2;;4.2;4;;;;;;
79466;SPS30;68933;49.726;9.226;2023-04-24T07:20:55;4.2;;4.2;4;;;;;;
79466;SPS30;68933;49.726;9.226;2023-04-24T07:23:08;3.5;;3.5;3.3;;;;;;
79466;SPS30;68933;49.726;9.226;2023-04-24T07:25:21;3.5;;3.5;3.3;;;;;;
79466;SPS30;68933;49.726;9.226;2023-04-24T07:27:34;3.5;;3.5;3.3;;;;;;
79466;SPS30;68933;49.726;9.226;2023-04-24T07:29:48;4.3;;4.3;4.1;;;;;;
79466;SPS30;68933;49.726;9.226;2023-04-24T07:32:00;4.3;;4.3;4.1;;;;;;
79466;SPS30;68933;49.726;9.226;2023-04-24T07:34:13;4.1;;4.1;3.9;;;;;;
79466;SPS30;68933;49.726;9.226;2023-04-24T07:36:26;4.1;;4.1;3.9;;;;;;
79466;SPS30;68933;49.726;9.226;2023-04-24T07:38:39;4.1;;4.1;4;;;;;;
79466;SPS30;68933;49.726;9.226;2023-04-24T07:40:52;4.1;;4.1;4;;;;;;
79466;SPS30;68933;49.726;9.226;2023-04-24T07:43:05;4.1;;4.1;4;;;;;;
79466;SPS30;68933;49.726;9.226;2023-04-24T07:45:18;3.8;;3.8;3.6;;;;;;
79466;SPS30;68933;49.726;9.226;2023-04-24T07:47:31;3.8;;3.8;3.6;;;;;;
79466;SPS30;68933;49.726;9.226;2023-04-24T07:49:45;3.2;;3.2;3;;;;;;
79466;SPS30;68933;49.726;9.226;2023-04-24T07:51:57;3.2;;3.2;3;;;;;;
79466;SPS30;68933;49.726;9.226;2023-04-24T07:54:10;3.6;;3.6;3.4;;;;;;
79466;SPS30;68933;49.726;9.226;2023-04-24T07:56:23;3.6;;3.6;3.4;;;;;;
79466;SPS30;68933;49.726;9.226;2023-04-24T07:58:36;3.4;;3.4;3.2;;;;;;
79466;SPS30;68933;49.726;9.226;2023-04-24T08:00:49;3.4;;3.4;3.2;;;;;;
79466;SPS30;68933;49.726;9.226;2023-04-24T08:03:02;3.4;;3.4;3.2;;;;;;
79466;SPS30;68933;49.726;9.226;2023-04-24T08:05:15;3.2;;3.2;3;;;;;;
79466;SPS30;68933;49.726;9.226;2023-04-24T08:07:28;3.2;;3.2;3;;;;;;
79466;SPS30;68933;49.726;9.226;2023-04-24T08:09:41;2.6;;2.6;2.5;;;;;;
79466;SPS30;68933;49.726;9.226;2023-04-24T08:11:54;2.6;;2.6;2.5;;;;;;
79466;SPS30;68933;49.726;9.226;2023-04-24T08:14:07;3;;3;2.9;;;;;;
79466;SPS30;68933;49.726;9.226;2023-04-24T08:16:20;3;;3;2.9;;;;;;
79466;SPS30;68933;49.726;9.226;2023-04-24T08:18:33;3;;3;2.9;;;;;;
79466;SPS30;68933;49.726;9.226;2023-04-24T08:20:46;2.5;;2.5;2.4;;;;;;
79466;SPS30;68933;49.726;9.226;2023-04-24T08:22:59;2.5;;2.5;2.4;;;;;;
79466;SPS30;68933;49.726;9.226;2023-04-24T08:25:12;2.7;;2.7;2.6;;;;;;
79466;SPS30;68933;49.726;9.226;2023-04-24T08:27:25;2.7;;2.7;2.6;;;;;;
79466;SPS30;68933;49.726;9.226;2023-04-24T08:29:38;3;;3;2.9;;;;;;
79466;SPS30;68933;49.726;9.226;2023-04-24T08:31:51;3;;3;2.9;;;;;;
79466;SPS30;68933;49.726;9.226;2023-04-24T08:34:04;2.2;;2.2;2.1;;;;;;
79466;SPS30;68933;49.726;9.226;2023-04-24T08:36:17;2.2;;2.2;2.1;;;;;;
79466;SPS30;68933;49.726;9.226;2023-04-24T08:38:30;2.2;;2.2;2.1;;;;;;
79466;SPS30;68933;49.726;9.226;2023-04-24T08:40:43;2.4;;2.4;2.3;;;;;;
79466;SPS30;68933;49.726;9.226;2023-04-24T08:42:56;2.4;;2.4;2.3;;;;;;
79466;SPS30;68933;49.726;9.226;2023-04-24T08:45:09;2.1;;2.1;2;;;;;;
79466;SPS30;68933;49.726;9.226;2023-04-24T08:47:22;2.1;;2.1;2;;;;;;
79466;SPS30;68933;49.726;9.226;2023-04-24T08:49:36;1.9;;1.9;1.8;;;;;;
79466;SPS30;68933;49.726;9.226;2023-04-24T08:51:48;1.9;;1.9;1.8;;;;;;
79466;SPS30;68933;49.726;9.226;2023-04-24T08:54:01;2.1;;2.1;2;;;;;;
79466;SPS30;68933;49.726;9.226;2023-04-24T08:56:14;2.1;;2.1;2;;;;;;
79466;SPS30;68933;49.726;9.226;2023-04-24T08:58:27;1.9;;1.9;1.9;;;;;;
79466;SPS30;68933;49.726;9.226;2023-04-24T09:00:40;1.9;;1.9;1.9;;;;;;
79466;SPS30;68933;49.726;9.226;2023-04-24T09:02:53;1.9;;1.9;1.9;;;;;;
79466;SPS30;68933;49.726;9.226;2023-04-24T09:05:06;2.2;;2.2;2.1;;;;;;
79466;SPS30;68933;49.726;9.226;2023-04-24T09:07:19;2.2;;2.2;2.1;;;;;;
79466;SPS30;68933;49.726;9.226;2023-04-24T09:09:33;2.2;;2.2;2.1;;;;;;
79466;SPS30;68933;49.726;9.226;2023-04-24T09:11:45;2.2;;2.2;2.1;;;;;;
79466;SPS30;68933;49.726;9.226;2023-04-24T09:13:58;2.3;;2.3;2.1;;;;;;
79466;SPS30;68933;49.726;9.226;2023-04-24T09:16:11;2.3;;2.3;2.1;;;;;;
79466;SPS30;68933;49.726;9.226;2023-04-24T09:18:25;2.7;;2.7;2.6;;;;;;
79466;SPS30;68933;49.726;9.226;2023-04-24T09:20:56;2.7;;2.7;2.6;;;;;;
79466;SPS30;68933;49.726;9.226;2023-04-24T09:22:53;2.7;;2.7;2.6;;;;;;
79466;SPS30;68933;49.726;9.226;2023-04-24T09:25:04;2.7;;2.7;2.6;;;;;;
79466;SPS30;68933;49.726;9.226;2023-04-24T09:27:16;2.8;;2.8;2.7;;;;;;
79466;SPS30;68933;49.726;9.226;2023-04-24T09:29:29;2.8;;2.8;2.7;;;;;;
79466;SPS30;68933;49.726;9.226;2023-04-24T09:31:42;2.8;;2.8;2.7;;;;;;
79466;SPS30;68933;49.726;9.226;2023-04-24T09:33:56;2.6;;2.6;2.5;;;;;;
79466;SPS30;68933;49.726;9.226;2023-04-24T09:36:08;2.6;;2.6;2.5;;;;;;
79466;SPS30;68933;49.726;9.226;2023-04-24T09:38:29;2.7;;2.7;2.6;;;;;;
79466;SPS30;68933;49.726;9.226;2023-04-24T09:40:35;2.7;;2.7;2.6;;;;;;
79466;SPS30;68933;49.726;9.226;2023-04-24T09:42:51;2.7;;2.7;2.6;;;;;;
79466;SPS30;68933;49.726;9.226;2023-04-24T09:45:00;2.9;;2.9;2.8;;;;;;
79466;SPS30;68933;49.726;9.226;2023-04-24T09:47:13;2.9;;2.9;2.8;;;;;;
79466;SPS30;68933;49.726;9.226;2023-04-24T09:49:27;3.7;;3.7;3.5;;;;;;
79466;SPS30;68933;49.726;9.226;2023-04-24T09:51:39;3.7;;3.7;3.5;;;;;;
79466;SPS30;68933;49.726;9.226;2023-04-24T09:53:52;3.7;;3.7;3.5;;;;;;
79466;SPS30;68933;49.726;9.226;2023-04-24T09:56:06;3.3;;3.3;3.2;;;;;;
79466;SPS30;68933;49.726;9.226;2023-04-24T09:58:18;3.3;;3.3;3.2;;;;;;
79466;SPS30;68933;49.726;9.226;2023-04-24T10:00:32;4;;4;3.8;;;;;;
79466;SPS30;68933;49.726;9.226;2023-04-24T10:02:44;4;;4;3.8;;;;;;
79466;SPS30;68933;49.726;9.226;2023-04-24T10:04:57;3.7;;3.7;3.5;;;;;;
79466;SPS30;68933;49.726;9.226;2023-04-24T10:07:10;3.7;;3.7;3.5;;;;;;
79466;SPS30;68933;49.726;9.226;2023-04-24T10:09:24;3.7;;3.7;3.5;;;;;;
79466;SPS30;68933;49.726;9.226;2023-04-24T10:11:36;3;;3;2.8;;;;;;
79466;SPS30;68933;49.726;9.226;2023-04-24T10:13:49;3;;3;2.8;;;;;;
79466;SPS30;68933;49.726;9.226;2023-04-24T10:16:02;3.9;;3.9;3.7;;;;;;
79466;SPS30;68933;49.726;9.226;2023-04-24T10:18:15;3.9;;3.9;3.7;;;;;;
79466;SPS30;68933;49.726;9.226;2023-04-24T10:20:29;3.9;;3.9;3.7;;;;;;
79466;SPS30;68933;49.726;9.226;2023-04-24T10:22:41;3.8;;3.8;3.6;;;;;;
79466;SPS30;68933;49.726;9.226;2023-04-24T10:24:54;3.8;;3.8;3.6;;;;;;
79466;SPS30;68933;49.726;9.226;2023-04-24T10:27:07;3.6;;3.6;3.5;;;;;;
79466;SPS30;68933;49.726;9.226;2023-04-24T10:29:20;3.6;;3.6;3.5;;;;;;
79466;SPS30;68933;49.726;9.226;2023-04-24T10:31:33;3.6;;3.6;3.5;;;;;;
79466;SPS30;68933;49.726;9.226;2023-04-24T10:33:46;3.2;;3.2;3;;;;;;
79466;SPS30;68933;49.726;9.226;2023-04-24T10:35:59;3.2;;3.2;3;;;;;;
79466;SPS30;68933;49.726;9.226;2023-04-24T10:38:13;3;;3;2.9;;;;;;
79466;SPS30;68933;49.726;9.226;2023-04-24T10:40:26;3;;3;2.9;;;;;;
79466;SPS30;68933;49.726;9.226;2023-04-24T10:42:39;2.9;;2.9;2.8;;;;;;
79466;SPS30;68933;49.726;9.226;2023-04-24T10:44:51;2.9;;2.9;2.8;;;;;;
79466;SPS30;68933;49.726;9.226;2023-04-24T10:47:04;2.9;;2.9;2.8;;;;;;
79466;SPS30;68933;49.726;9.226;2023-04-24T10:49:17;2.8;;2.8;2.7;;;;;;
79466;SPS30;68933;49.726;9.226;2023-04-24T10:51:42;2.8;;2.8;2.7;;;;;;
79466;SPS30;68933;49.726;9.226;2023-04-24T10:53:43;2.3;;2.3;2.2;;;;;;
79466;SPS30;68933;49.726;9.226;2023-04-24T10:55:57;2.3;;2.3;2.2;;;;;;
79466;SPS30;68933;49.726;9.226;2023-04-24T10:58:10;2.8;;2.8;2.6;;;;;;
79466;SPS30;68933;49.726;9.226;2023-04-24T11:00:24;2.8;;2.8;2.6;;;;;;
79466;SPS30;68933;49.726;9.226;2023-04-24T11:02:36;2.8;;2.8;2.6;;;;;;
79466;SPS30;68933;49.726;9.226;2023-04-24T11:04:49;2.9;;2.9;2.7;;;;;;
79466;SPS30;68933;49.726;9.226;2023-04-24T11:07:02;2.9;;2.9;2.7;;;;;;
79466;SPS30;68933;49.726;9.226;2023-04-24T11:09:14;3;;3;2.9;;;;;;
79466;SPS30;68933;49.726;9.226;2023-04-24T11:11:28;3;;3;2.9;;;;;;
79466;SPS30;68933;49.726;9.226;2023-04-24T11:14:13;2.4;;2.4;2.3;;;;;;
79466;SPS30;68933;49.726;9.226;2023-04-24T11:16:25;2.4;;2.4;2.3;;;;;;
79466;SPS30;68933;49.726;9.226;2023-04-24T11:18:06;2.4;;2.4;2.3;;;;;;
79466;SPS30;68933;49.726;9.226;2023-04-24T11:20:22;3.5;;3.5;3.4;;;;;;
79466;SPS30;68933;49.726;9.226;2023-04-24T11:22:33;3.5;;3.5;3.4;;;;;;
79466;SPS30;68933;49.726;9.226;2023-04-24T11:24:48;3.5;;3.5;3.4;;;;;;
79466;SPS30;68933;49.726;9.226;2023-04-24T11:26:59;3.5;;3.5;3.4;;;;;;
79466;SPS30;68933;49.726;9.226;2023-04-24T11:29:11;2.6;;2.6;2.5;;;;;;
79466;SPS30;68933;49.726;9.226;2023-04-24T11:31:40;2.6;;2.6;2.5;;;;;;
79466;SPS30;68933;49.726;9.226;2023-04-24T11:33:37;2.7;;2.7;2.6;;;;;;
79466;SPS30;68933;49.726;9.226;2023-04-24T11:35:50;2.7;;2.7;2.6;;;;;;
79466;SPS30;68933;49.726;9.226;2023-04-24T11:38:03;2.1;;2.1;2;;;;;;
79466;SPS30;68933;49.726;9.226;2023-04-24T11:40:17;2.1;;2.1;2;;;;;;
79466;SPS30;68933;49.726;9.226;2023-04-24T11:42:33;2.1;;2.1;2;;;;;;
79466;SPS30;68933;49.726;9.226;2023-04-24T11:44:42;2.1;;2.1;2;;;;;;
79466;SPS30;68933;49.726;9.226;2023-04-24T11:46:55;2.1;;2.1;2;;;;;;
79466;SPS30;68933;49.726;9.226;2023-04-24T11:49:08;2.7;;2.7;2.5;;;;;;
79466;SPS30;68933;49.726;9.226;2023-04-24T11:51:22;2.7;;2.7;2.5;;;;;;
79466;SPS30;68933;49.726;9.226;2023-04-24T11:53:35;2.4;;2.4;2.3;;;;;;
79466;SPS30;68933;49.726;9.226;2023-04-24T11:55:47;2.4;;2.4;2.3;;;;;;
79466;SPS30;68933;49.726;9.226;2023-04-24T11:58:00;2.4;;2.4;2.3;;;;;;
79466;SPS30;68933;49.726;9.226;2023-04-24T12:00:15;2.2;;2.2;2.1;;;;;;
79466;SPS30;68933;49.726;9.226;2023-04-24T12:02:27;2.2;;2.2;2.1;;;;;;
79466;SPS30;68933;49.726;9.226;2023-04-24T12:04:39;3.1;;3.1;3;;;;;;
79466;SPS30;68933;49.726;9.226;2023-04-24T12:06:59;3.1;;3.1;3;;;;;;
79466;SPS30;68933;49.726;9.226;2023-04-24T12:09:05;2.2;;2.2;2.1;;;;;;
79466;SPS30;68933;49.726;9.226;2023-04-24T12:11:18;2.2;;2.2;2.1;;;;;;
79466;SPS30;68933;49.726;9.226;2023-04-24T12:13:31;3;;3;2.9;;;;;;
79466;SPS30;68933;49.726;9.226;2023-04-24T12:15:44;3;;3;2.9;;;;;;
79466;SPS30;68933;49.726;9.226;2023-04-24T12:17:57;2.6;;2.6;2.5;;;;;;
79466;SPS30;68933;49.726;9.226;2023-04-24T12:20:10;2.6;;2.6;2.5;;;;;;
79466;SPS30;68933;49.726;9.226;2023-04-24T12:22:23;2.6;;2.6;2.5;;;;;;
79466;SPS30;68933;49.726;9.226;2023-04-24T12:24:54;2.6;;2.6;2.5;;;;;;
79466;SPS30;68933;49.726;9.226;2023-04-24T12:26:49;2.6;;2.6;2.5;;;;;;
79466;SPS30;68933;49.726;9.226;2023-04-24T12:29:02;3;;3;2.8;;;;;;
79466;SPS30;68933;49.726;9.226;2023-04-24T12:31:15;3;;3;2.8;;;;;;
79466;SPS30;68933;49.726;9.226;2023-04-24T12:33:32;3.1;;3.1;3;;;;;;
79466;SPS30;68933;49.726;9.226;2023-04-24T12:35:41;3.1;;3.1;3;;;;;;
79466;SPS30;68933;49.726;9.226;2023-04-24T12:37:54;2.5;;2.5;2.4;;;;;;
79466;SPS30;68933;49.726;9.226;2023-04-24T12:40:08;2.5;;2.5;2.4;;;;;;
79466;SPS30;68933;49.726;9.226;2023-04-24T12:42:25;3.2;;3.2;3;;;;;;
79466;SPS30;68933;49.726;9.226;2023-04-24T12:44:33;3.2;;3.2;3;;;;;;